createdAt,value
2023-05-25T00:01:02.589Z,80.60
2023-05-25T00:03:37.827Z,80.50
2023-05-25T00:06:10.206Z,78.70
2023-05-25T00:08:43.957Z,78.10
2023-05-25T00:11:14.994Z,77.90
2023-05-25T00:13:45.573Z,77.20
2023-05-25T00:16:16.348Z,78.00
2023-05-25T00:18:47.328Z,78.00
2023-05-25T00:21:18.130Z,76.70
2023-05-25T00:23:48.705Z,75.70
2023-05-25T00:26:19.155Z,75.10
2023-05-25T00:28:50.081Z,74.50
2023-05-25T00:31:21.773Z,74.70
2023-05-25T00:33:52.696Z,74.10
2023-05-25T00:36:23.040Z,74.40
2023-05-25T00:38:53.889Z,74.60
2023-05-25T00:41:26.040Z,73.30
2023-05-25T00:43:57.939Z,73.30
2023-05-25T00:46:29.061Z,73.40
2023-05-25T00:48:59.478Z,72.60
2023-05-25T00:51:31.828Z,72.30
2023-05-25T00:54:02.504Z,72.30
2023-05-25T00:56:35.500Z,72.00
2023-05-25T00:59:10.358Z,71.80
2023-05-25T01:01:42.957Z,71.70
2023-05-25T01:04:17.265Z,72.00
2023-05-25T01:06:52.336Z,71.90
2023-05-25T01:09:24.657Z,70.90
2023-05-25T01:11:55.972Z,70.90
2023-05-25T01:14:27.184Z,70.70
2023-05-25T01:16:58.671Z,70.80
2023-05-25T01:19:30.642Z,70.20
2023-05-25T01:22:16.412Z,70.60
2023-05-25T01:25:03.993Z,69.90
2023-05-25T01:27:49.652Z,69.10
2023-05-25T01:30:21.967Z,70.10
2023-05-25T01:32:52.914Z,68.40
2023-05-25T01:35:25.049Z,68.70
2023-05-25T01:37:55.879Z,69.00
2023-05-25T01:40:26.606Z,69.20
2023-05-25T01:42:57.314Z,68.70
2023-05-25T01:45:28.536Z,67.50
2023-05-25T01:48:35.232Z,66.80
2023-05-25T01:51:27.307Z,65.60
2023-05-25T01:54:03.946Z,68.00
2023-05-25T01:56:35.725Z,66.40
2023-05-25T01:59:10.284Z,66.40
2023-05-25T02:01:42.484Z,66.60
2023-05-25T02:04:13.696Z,66.20
2023-05-25T02:06:44.118Z,65.50
2023-05-25T02:09:14.985Z,64.70
2023-05-25T02:11:45.434Z,64.80
2023-05-25T02:14:16.015Z,64.30
2023-05-25T02:16:49.012Z,64.90
2023-05-25T02:19:19.344Z,64.30
2023-05-25T02:21:49.884Z,65.10
2023-05-25T02:24:20.314Z,64.10
2023-05-25T02:26:50.718Z,63.50
2023-05-25T02:29:21.221Z,63.40
2023-05-25T02:31:52.897Z,62.40
2023-05-25T02:34:24.517Z,62.90
2023-05-25T02:36:54.871Z,63.20
2023-05-25T02:39:29.438Z,61.80
2023-05-25T02:42:00.879Z,61.60
2023-05-25T02:44:32.389Z,60.70
2023-05-25T02:47:05.053Z,61.20
2023-05-25T02:49:36.590Z,61.20
2023-05-25T02:52:07.697Z,60.30
2023-05-25T02:54:39.668Z,60.70
2023-05-25T02:57:11.263Z,60.80
2023-05-25T02:59:41.642Z,59.80
2023-05-25T03:02:14.911Z,59.40
2023-05-25T03:04:51.546Z,58.80
2023-05-25T03:07:23.008Z,59.60
2023-05-25T03:09:53.602Z,59.30
2023-05-25T03:12:24.384Z,58.00
2023-05-25T03:14:56.672Z,59.20
2023-05-25T03:17:29.548Z,58.30
2023-05-25T03:20:00.319Z,57.00
2023-05-25T03:22:31.065Z,58.10
2023-05-25T03:25:01.419Z,58.80
2023-05-25T03:27:31.773Z,58.60
2023-05-25T03:30:02.047Z,57.90
2023-05-25T03:32:32.378Z,57.10
2023-05-25T03:35:02.711Z,56.00
2023-05-25T03:37:33.035Z,57.20
2023-05-25T03:40:03.469Z,57.60
2023-05-25T03:42:33.846Z,56.00
2023-05-25T03:45:04.217Z,56.60
2023-05-25T03:47:34.619Z,57.00
2023-05-25T03:50:09.865Z,57.00
2023-05-25T03:52:41.754Z,57.20
2023-05-25T03:55:14.115Z,57.30
2023-05-25T03:57:46.388Z,56.90
2023-05-25T04:00:17.332Z,56.80
2023-05-25T04:02:47.758Z,57.00
2023-05-25T04:05:18.959Z,57.00
2023-05-25T04:07:49.708Z,57.40
2023-05-25T04:10:20.175Z,57.70
2023-05-25T04:12:50.602Z,58.80
2023-05-25T04:15:20.952Z,58.30
2023-05-25T04:17:51.382Z,57.90
2023-05-25T04:20:22.113Z,58.20
2023-05-25T04:22:52.576Z,58.10
2023-05-25T04:25:22.891Z,59.10
2023-05-25T04:27:55.231Z,58.80
2023-05-25T04:30:26.177Z,58.10
2023-05-25T04:32:59.771Z,59.00
2023-05-25T04:35:31.124Z,59.40
2023-05-25T04:38:04.477Z,59.30
2023-05-25T04:40:35.142Z,59.00
2023-05-25T04:43:07.080Z,58.90
2023-05-25T04:45:37.851Z,59.20
2023-05-25T04:48:12.054Z,58.40
2023-05-25T04:50:43.010Z,58.90
2023-05-25T04:53:13.872Z,58.80
2023-05-25T04:55:44.519Z,59.10
2023-05-25T04:58:15.510Z,58.90
2023-05-25T05:00:46.077Z,59.40
2023-05-25T05:03:16.788Z,58.10
2023-05-25T05:05:47.415Z,58.20
2023-05-25T05:08:18.468Z,58.50
2023-05-25T05:10:48.771Z,58.00
2023-05-25T05:13:19.211Z,57.40
2023-05-25T05:15:49.529Z,58.00
2023-05-25T05:18:20.040Z,58.20
2023-05-25T05:20:50.384Z,58.20
2023-05-25T05:23:21.182Z,57.80
2023-05-25T05:25:51.949Z,58.90
2023-05-25T05:28:23.207Z,58.70
2023-05-25T05:30:53.519Z,58.70
2023-05-25T05:33:26.395Z,58.70
2023-05-25T05:35:58.487Z,59.00
2023-05-25T05:38:33.657Z,59.50
2023-05-25T05:41:05.382Z,58.80
2023-05-25T05:43:38.279Z,58.80
2023-05-25T05:46:09.135Z,59.60
2023-05-25T05:48:40.751Z,60.80
2023-05-25T05:51:11.043Z,59.90
2023-05-25T05:53:41.541Z,60.10
2023-05-25T05:56:20.554Z,59.50
2023-05-25T05:58:53.545Z,59.40
2023-05-25T06:01:25.174Z,59.10
2023-05-25T06:03:56.149Z,60.00
2023-05-25T06:06:26.583Z,59.60
2023-05-25T06:08:57.876Z,59.90
2023-05-25T06:11:28.708Z,60.50
2023-05-25T06:14:01.368Z,60.10
2023-05-25T06:16:34.145Z,60.80
2023-05-25T06:19:04.644Z,61.50
2023-05-25T06:21:34.943Z,60.70
2023-05-25T06:24:07.570Z,61.70
2023-05-25T06:26:38.473Z,62.00
2023-05-25T06:29:09.644Z,61.80
2023-05-25T06:31:41.621Z,62.40
2023-05-25T06:34:12.506Z,62.20
2023-05-25T06:36:44.147Z,62.40
2023-05-25T06:39:16.979Z,62.90
2023-05-25T06:44:48.027Z,63.00
2023-05-25T06:47:18.521Z,63.60
2023-05-25T06:49:51.137Z,64.00
2023-05-25T06:52:23.607Z,64.00
2023-05-25T06:54:56.887Z,64.30
2023-05-25T06:57:29.763Z,64.60
2023-05-25T07:00:06.668Z,65.00
2023-05-25T07:02:37.987Z,64.70
2023-05-25T07:05:14.103Z,64.80
2023-05-25T07:07:46.937Z,65.20
2023-05-25T07:10:20.702Z,66.40
2023-05-25T07:12:56.665Z,65.20
2023-05-25T07:15:32.805Z,65.50
2023-05-25T07:18:09.137Z,65.30
2023-05-25T07:20:44.722Z,65.70
2023-05-25T07:23:17.145Z,65.50
2023-05-25T07:25:48.708Z,65.70
2023-05-25T07:28:20.088Z,66.10
2023-05-25T07:30:57.294Z,66.10
2023-05-25T07:33:28.134Z,66.90
2023-05-25T07:35:59.573Z,67.10
2023-05-25T07:38:33.148Z,67.00
2023-05-25T07:41:05.971Z,67.00
2023-05-25T07:43:39.898Z,67.50
2023-05-25T07:46:12.526Z,67.90
2023-05-25T07:48:44.853Z,67.50
2023-05-25T07:51:15.626Z,68.50
2023-05-25T07:53:46.692Z,68.30
2023-05-25T07:56:17.659Z,69.10
2023-05-25T07:58:48.484Z,69.40
2023-05-25T08:01:19.424Z,69.10
2023-05-25T08:03:50.440Z,68.50
2023-05-25T08:06:22.277Z,69.30
2023-05-25T08:08:52.714Z,68.20
2023-05-25T08:11:28.510Z,68.80
2023-05-25T08:13:58.995Z,69.00
2023-05-25T08:16:29.518Z,69.40
2023-05-25T08:19:01.498Z,68.90
2023-05-25T08:21:34.628Z,69.60
2023-05-25T08:24:09.970Z,69.70
2023-05-25T08:26:53.941Z,70.80
2023-05-25T08:29:27.384Z,70.80
2023-05-25T08:31:58.204Z,69.90
2023-05-25T08:34:28.650Z,70.30
2023-05-25T08:37:00.472Z,70.80
2023-05-25T08:39:31.889Z,70.00
2023-05-25T08:42:04.606Z,70.70
2023-05-25T08:44:35.843Z,70.80
2023-05-25T08:47:13.596Z,70.30
2023-05-25T08:49:46.840Z,70.60
2023-05-25T08:52:20.306Z,71.50
2023-05-25T08:54:56.433Z,71.70
2023-05-25T08:57:58.014Z,71.90
2023-05-25T09:00:41.773Z,70.90
2023-05-25T09:03:22.377Z,71.90
2023-05-25T09:05:53.375Z,71.50
2023-05-25T09:08:33.640Z,71.60
2023-05-25T09:11:05.231Z,72.70
2023-05-25T09:13:36.309Z,73.00
2023-05-25T09:16:07.019Z,72.70
2023-05-25T09:18:37.538Z,72.50
2023-05-25T09:21:07.915Z,72.90
2023-05-25T09:23:39.879Z,71.90
2023-05-25T09:26:10.642Z,73.10
2023-05-25T09:28:52.544Z,72.50
2023-05-25T09:31:25.880Z,71.70
2023-05-25T09:34:03.600Z,71.30
2023-05-25T09:36:36.932Z,71.70
2023-05-25T09:39:07.966Z,73.00
2023-05-25T09:41:38.776Z,72.00
2023-05-25T09:44:11.571Z,72.40
2023-05-25T09:46:42.806Z,71.90
2023-05-25T09:49:14.111Z,72.80
2023-05-25T09:51:44.469Z,72.10
2023-05-25T09:54:15.050Z,72.10
2023-05-25T09:56:45.949Z,72.80
2023-05-25T09:59:17.811Z,73.50
2023-05-25T10:01:54.278Z,73.60
2023-05-25T10:04:25.166Z,73.00
2023-05-25T10:06:58.447Z,73.40
2023-05-25T10:09:32.059Z,73.10
2023-05-25T10:12:04.174Z,73.50
2023-05-25T10:14:38.208Z,72.80
2023-05-25T10:17:11.203Z,74.20
2023-05-25T10:19:58.049Z,73.20
2023-05-25T10:22:37.968Z,74.50
2023-05-25T10:25:12.782Z,75.00
2023-05-25T10:27:49.813Z,74.70
2023-05-25T10:30:22.226Z,74.70
2023-05-25T10:32:53.465Z,74.90
2023-05-25T10:35:24.808Z,74.60
2023-05-25T10:37:56.428Z,74.70
2023-05-25T10:40:27.652Z,73.90
2023-05-25T10:43:00.446Z,73.80
2023-05-25T10:45:32.245Z,72.90
2023-05-25T10:48:02.840Z,73.50
2023-05-25T10:50:38.717Z,72.60
2023-05-25T10:53:10.410Z,73.30
2023-05-25T10:55:52.319Z,72.90
2023-05-25T10:58:25.191Z,72.90
2023-05-25T11:01:14.370Z,73.60
2023-05-25T11:03:48.333Z,73.50
2023-05-25T11:06:24.186Z,73.50
2023-05-25T11:09:01.722Z,72.80
2023-05-25T11:11:47.691Z,72.80
2023-05-25T11:14:45.244Z,72.80
2023-05-25T11:17:23.666Z,73.40
2023-05-25T11:19:57.974Z,73.60
2023-05-25T11:22:39.570Z,74.10
2023-05-25T11:25:39.176Z,73.80
2023-05-25T11:28:12.976Z,73.70
2023-05-25T11:30:44.849Z,74.20
2023-05-25T11:33:15.594Z,72.90
2023-05-25T11:35:47.067Z,72.80
2023-05-25T11:38:18.745Z,73.40
2023-05-25T11:40:50.038Z,73.80
2023-05-25T11:43:21.677Z,73.30
2023-05-25T11:45:58.757Z,73.80
2023-05-25T11:48:29.212Z,72.90
2023-05-25T11:51:09.674Z,72.80
2023-05-25T11:53:47.235Z,72.70
2023-05-25T11:56:33.664Z,73.60
2023-05-25T11:59:05.008Z,72.80
2023-05-25T12:01:36.946Z,72.90
2023-05-25T12:04:14.907Z,72.40
2023-05-25T12:06:50.090Z,71.90
2023-05-25T12:09:24.612Z,71.50
2023-05-25T12:11:55.415Z,71.90
2023-05-25T12:14:26.214Z,71.80
2023-05-25T12:16:58.305Z,71.30
2023-05-25T12:19:29.293Z,71.50
2023-05-25T12:22:00.909Z,71.10
2023-05-25T12:24:31.301Z,71.60
2023-05-25T12:27:03.609Z,71.90
2023-05-25T12:29:34.393Z,70.30
2023-05-25T12:32:08.896Z,70.00
2023-05-25T12:34:39.185Z,70.30
2023-05-25T12:37:24.746Z,70.20
2023-05-25T12:39:56.044Z,69.30
2023-05-25T12:42:33.445Z,69.00
2023-05-25T12:45:03.939Z,69.40
2023-05-25T12:47:34.325Z,70.00
2023-05-25T12:50:15.130Z,69.20
2023-05-25T12:52:50.790Z,69.80
2023-05-25T12:55:31.727Z,70.30
2023-05-25T12:58:06.339Z,69.40
2023-05-25T13:00:42.039Z,69.40
2023-05-25T13:03:12.927Z,69.20
2023-05-25T13:05:43.412Z,69.30
2023-05-25T13:08:14.087Z,71.50
2023-05-25T13:10:44.641Z,70.50
2023-05-25T13:13:15.113Z,70.80
2023-05-25T13:15:46.291Z,69.80
2023-05-25T13:18:17.033Z,70.20
2023-05-25T13:20:51.107Z,70.50
2023-05-25T13:23:23.717Z,71.50
2023-05-25T13:25:54.479Z,70.00
2023-05-25T13:28:24.789Z,69.90
2023-05-25T13:30:55.120Z,68.70
2023-05-25T13:33:26.497Z,69.60
2023-05-25T13:36:24.275Z,71.30
2023-05-25T13:38:55.017Z,71.70
2023-05-25T13:41:25.766Z,73.00
2023-05-25T13:43:56.684Z,72.10
2023-05-25T13:49:04.229Z,72.30
2023-05-25T13:51:37.243Z,72.50
2023-05-25T13:54:07.887Z,72.00
2023-05-25T13:56:39.105Z,72.70
2023-05-25T13:59:09.490Z,72.70
2023-05-25T14:01:41.603Z,72.60
2023-05-25T14:04:13.341Z,73.90
2023-05-25T14:06:45.177Z,74.50
2023-05-25T14:09:15.764Z,74.90
2023-05-25T14:11:46.164Z,75.10
2023-05-25T14:14:30.100Z,75.30
2023-05-25T14:17:02.002Z,74.50
2023-05-25T14:19:32.728Z,74.10
2023-05-25T14:22:13.457Z,74.50
2023-05-25T14:24:45.245Z,76.00
2023-05-25T14:27:17.719Z,76.70
2023-05-25T14:29:48.084Z,76.20
2023-05-25T14:32:19.045Z,75.40
2023-05-25T14:34:49.568Z,76.80
2023-05-25T14:37:19.911Z,76.80
2023-05-25T14:39:50.266Z,76.70
2023-05-25T14:42:20.695Z,76.70
2023-05-25T14:44:51.395Z,76.80
2023-05-25T14:47:21.685Z,77.00
2023-05-25T14:49:52.489Z,78.30
2023-05-25T14:52:22.789Z,77.80
2023-05-25T14:54:53.472Z,78.10
2023-05-25T14:57:24.465Z,78.70
2023-05-25T14:59:55.657Z,78.70
2023-05-25T15:02:27.423Z,78.30
2023-05-25T15:04:58.237Z,78.30
2023-05-25T15:07:30.537Z,78.70
2023-05-25T15:10:01.001Z,79.10
2023-05-25T15:12:31.382Z,79.10
2023-05-25T15:15:02.261Z,79.60
2023-05-25T15:17:33.041Z,80.50
2023-05-25T15:20:03.862Z,81.60
2023-05-25T15:22:34.694Z,81.20
2023-05-25T15:25:05.079Z,80.90
2023-05-25T15:27:36.980Z,81.10
2023-05-25T15:30:10.059Z,81.10
2023-05-25T15:32:42.097Z,81.30
2023-05-25T15:35:13.802Z,82.20
2023-05-25T15:37:45.005Z,81.80
2023-05-25T15:40:16.735Z,81.70
2023-05-25T15:42:48.746Z,81.70
2023-05-25T15:45:19.509Z,81.90
2023-05-25T15:47:52.220Z,81.50
2023-05-25T15:50:22.727Z,81.60
2023-05-25T15:52:53.165Z,81.70
2023-05-25T15:55:23.654Z,81.70
2023-05-25T15:57:54.424Z,81.70
2023-05-25T16:00:24.912Z,81.70
2023-05-25T16:02:55.447Z,81.70
2023-05-25T16:05:26.450Z,83.00
2023-05-25T16:07:56.970Z,83.30
2023-05-25T16:10:27.239Z,83.30
2023-05-25T16:12:57.667Z,83.90
2023-05-25T16:15:28.154Z,83.70
2023-05-25T16:17:59.574Z,83.50
2023-05-25T16:20:30.513Z,84.80
2023-05-25T16:23:01.100Z,83.90
2023-05-25T16:25:33.080Z,84.00
2023-05-25T16:28:03.960Z,84.30
2023-05-25T16:30:34.791Z,84.10
2023-05-25T16:33:05.235Z,85.20
2023-05-25T16:35:35.567Z,84.50
2023-05-25T16:38:05.909Z,85.50
2023-05-25T16:40:36.272Z,84.40
2023-05-25T16:43:07.027Z,84.90
2023-05-25T16:45:37.344Z,86.20
2023-05-25T16:48:08.172Z,84.60
2023-05-25T16:50:38.534Z,84.70
2023-05-25T16:53:08.973Z,86.60
2023-05-25T16:55:39.563Z,85.30
2023-05-25T16:58:11.244Z,84.90
2023-05-25T17:00:41.869Z,84.70
2023-05-25T17:03:12.780Z,84.40
2023-05-25T17:05:43.341Z,84.70
2023-05-25T17:08:14.453Z,84.50
2023-05-25T17:10:52.846Z,84.80
2023-05-25T17:13:23.381Z,84.60
2023-05-25T17:15:53.791Z,84.30
2023-05-25T17:18:24.593Z,84.20
2023-05-25T17:20:55.450Z,85.70
2023-05-25T17:23:25.783Z,85.00
2023-05-25T17:25:56.102Z,85.60
2023-05-25T17:28:28.329Z,85.50
2023-05-25T17:31:01.619Z,85.00
2023-05-25T17:33:32.135Z,84.50
2023-05-25T17:36:02.507Z,84.40
2023-05-25T17:38:38.717Z,84.50
2023-05-25T17:41:09.779Z,86.20
2023-05-25T17:43:40.486Z,85.70
2023-05-25T17:46:11.032Z,85.10
2023-05-25T17:48:42.572Z,85.00
2023-05-25T17:51:14.112Z,86.50
2023-05-25T17:53:44.916Z,85.70
2023-05-25T17:56:15.773Z,86.20
2023-05-25T17:58:49.030Z,87.50
2023-05-25T18:01:20.075Z,86.90
2023-05-25T18:03:53.414Z,87.50
2023-05-25T18:06:24.221Z,87.00
2023-05-25T18:08:54.496Z,86.40
2023-05-25T18:11:25.022Z,86.70
2023-05-25T18:13:55.678Z,86.60
2023-05-25T18:16:26.502Z,85.90
2023-05-25T18:18:57.226Z,86.00
2023-05-25T18:21:27.560Z,87.80
2023-05-25T18:23:58.308Z,87.00
2023-05-25T18:26:29.097Z,87.50
2023-05-25T18:29:01.103Z,86.80
2023-05-25T18:31:34.306Z,86.40
2023-05-25T18:34:05.156Z,85.90
2023-05-25T18:36:36.720Z,87.00
2023-05-25T18:39:07.162Z,86.90
2023-05-25T18:41:38.088Z,86.60
2023-05-25T18:44:10.333Z,86.60
2023-05-25T18:46:42.777Z,86.40
2023-05-25T18:49:13.429Z,86.20
2023-05-25T18:51:45.050Z,85.80
2023-05-25T18:54:15.838Z,86.10
2023-05-25T18:56:46.558Z,86.10
2023-05-25T18:59:17.211Z,86.10
2023-05-25T19:01:47.725Z,86.40
2023-05-25T19:04:18.496Z,86.10
2023-05-25T19:06:48.901Z,86.30
2023-05-25T19:09:19.266Z,86.30
2023-05-25T19:11:49.683Z,86.00
2023-05-25T19:14:33.607Z,86.30
2023-05-25T19:17:04.053Z,86.90
2023-05-25T19:19:34.422Z,86.00
2023-05-25T19:22:05.254Z,85.80
2023-05-25T19:24:36.667Z,85.70
2023-05-25T19:27:08.535Z,85.70
2023-05-25T19:29:39.578Z,85.10
2023-05-25T19:32:09.978Z,84.80
2023-05-25T19:34:40.383Z,85.50
2023-05-25T19:37:12.010Z,85.70
2023-05-25T19:39:42.749Z,86.30
2023-05-25T19:42:13.602Z,86.70
2023-05-25T19:44:45.440Z,87.00
2023-05-25T19:47:16.568Z,88.40
2023-05-25T19:49:47.358Z,89.80
2023-05-25T19:52:20.614Z,89.10
2023-05-25T19:54:51.663Z,88.90
2023-05-25T19:57:25.860Z,87.90
2023-05-25T19:59:56.474Z,88.30
2023-05-25T20:02:26.926Z,88.70
2023-05-25T20:04:58.218Z,89.00
2023-05-25T20:07:28.733Z,90.10
2023-05-25T20:09:59.077Z,90.30
2023-05-25T20:12:29.408Z,90.50
2023-05-25T20:14:59.830Z,91.00
2023-05-25T20:17:30.685Z,91.30
2023-05-25T20:20:03.121Z,91.60
2023-05-25T20:22:34.617Z,92.00
2023-05-25T20:25:05.452Z,92.20
2023-05-25T20:27:35.866Z,92.40
2023-05-25T20:30:07.092Z,92.50
2023-05-25T20:32:37.544Z,92.60
2023-05-25T20:35:08.357Z,92.90
2023-05-25T20:37:38.739Z,93.20
2023-05-25T20:40:09.844Z,93.50
2023-05-25T20:42:40.258Z,93.90
2023-05-25T20:45:11.586Z,94.20
2023-05-25T20:47:43.223Z,94.40
2023-05-25T20:50:14.189Z,94.70
2023-05-25T20:52:47.712Z,94.80
2023-05-25T20:55:59.933Z,95.00
2023-05-25T20:58:31.105Z,94.80
2023-05-25T21:01:01.953Z,95.00
2023-05-25T21:03:33.889Z,95.00
2023-05-25T21:06:04.714Z,95.20
2023-05-25T21:08:38.677Z,95.00
2023-05-25T21:11:09.507Z,95.00
2023-05-25T21:13:41.048Z,95.20
2023-05-25T21:16:12.078Z,95.10
2023-05-25T21:18:43.734Z,95.50
2023-05-25T21:21:14.223Z,95.70
2023-05-25T21:23:44.902Z,95.60
2023-05-25T21:26:16.473Z,95.50
2023-05-25T21:28:47.245Z,95.60
2023-05-25T21:31:17.826Z,95.60
2023-05-25T21:33:51.508Z,95.80
2023-05-25T21:36:22.758Z,96.00
2023-05-25T21:38:53.519Z,96.00
2023-05-25T21:41:25.276Z,96.30
2023-05-25T21:43:55.640Z,96.30
2023-05-25T21:46:26.634Z,96.30
2023-05-25T21:48:58.256Z,96.30
2023-05-25T21:51:29.527Z,96.40
2023-05-25T21:54:00.261Z,96.10
2023-05-25T21:56:32.347Z,96.20
2023-05-25T21:59:02.724Z,96.10
2023-05-25T22:01:33.188Z,96.00
2023-05-25T22:04:04.021Z,96.00
2023-05-25T22:06:34.667Z,96.50
2023-05-25T22:09:05.615Z,96.20
2023-05-25T22:11:37.468Z,95.40
2023-05-25T22:14:08.241Z,95.00
2023-05-25T22:16:38.719Z,93.80
2023-05-25T22:19:09.439Z,93.00
2023-05-25T22:21:40.485Z,93.80
2023-05-25T22:24:11.048Z,94.30
2023-05-25T22:26:41.899Z,93.60
2023-05-25T22:29:13.621Z,93.20
2023-05-25T22:31:44.056Z,92.90
2023-05-25T22:34:14.432Z,92.10
2023-05-25T22:36:44.833Z,92.20
2023-05-25T22:39:16.522Z,93.00
2023-05-25T22:41:48.004Z,93.60
2023-05-25T22:44:18.284Z,92.50
2023-05-25T22:46:50.974Z,93.00
2023-05-25T22:49:21.393Z,92.50
2023-05-25T22:51:51.978Z,91.20
2023-05-25T22:54:23.448Z,91.20
2023-05-25T22:56:53.895Z,91.40
2023-05-25T22:59:25.642Z,90.90
2023-05-25T23:01:58.292Z,91.90
2023-05-25T23:04:28.678Z,88.00
2023-05-25T23:06:59.069Z,90.50
2023-05-25T23:09:29.809Z,89.50
2023-05-25T23:12:00.610Z,86.60
2023-05-25T23:14:32.116Z,86.50
2023-05-25T23:17:02.907Z,86.90
2023-05-25T23:19:33.199Z,85.70
2023-05-25T23:22:03.645Z,85.70
2023-05-25T23:24:47.943Z,84.10
2023-05-25T23:27:29.405Z,84.80
2023-05-25T23:29:59.858Z,85.50
2023-05-25T23:32:30.324Z,83.40
2023-05-25T23:35:01.131Z,82.80
2023-05-25T23:37:31.507Z,84.30
2023-05-25T23:40:02.313Z,84.00
2023-05-25T23:42:39.327Z,84.10
2023-05-25T23:45:11.746Z,83.70
2023-05-25T23:47:42.445Z,84.00
2023-05-25T23:50:13.272Z,84.80
2023-05-25T23:52:44.226Z,84.60
2023-05-25T23:55:15.393Z,81.60
2023-05-25T23:57:46.400Z,82.90
